Time;durP1;ratioP1;P1;durP2;ratioP2;P2;SDS_P1;SDS_P2;PMS_P1;PMS_P2;Temp;Humidity;BMP_temperature;BMP_pressure;BME280_temperature;BME280_humidity;BME280_pressure;Samples;Min_cycle;Max_cycle;Signal;HPM_P1;HPM_P2
2022/10/15 00:00:05;;;;;;;23.27;20.80;;;14.80;99.90;;;;;;5031703;28;20497;-49
2022/10/15 00:02:31;;;;;;;24.47;21.40;;;14.80;99.90;;;;;;5031928;28;20944;-49
2022/10/15 00:04:58;;;;;;;22.77;20.50;;;14.80;99.90;;;;;;5031799;28;20820;-48
2022/10/15 00:07:25;;;;;;;23.83;21.23;;;14.60;99.90;;;;;;5031664;28;20947;-48
2022/10/15 00:09:53;;;;;;;30.90;21.10;;;15.20;99.90;;;;;;5030422;28;20445;-48
2022/10/15 00:12:20;;;;;;;24.07;19.60;;;14.70;99.90;;;;;;5031932;28;20446;-49
2022/10/15 00:14:46;;;;;;;25.87;21.87;;;15.00;99.90;;;;;;5031721;28;20959;-49
2022/10/15 00:17:13;;;;;;;22.80;20.20;;;14.70;99.90;;;;;;5031903;28;20437;-48
2022/10/15 00:19:39;;;;;;;24.60;22.10;;;14.40;99.90;;;;;;5030808;28;20479;-49
2022/10/15 00:22:06;;;;;;;23.57;21.03;;;15.10;99.90;;;;;;5031744;28;20638;-49
2022/10/15 00:24:32;;;;;;;25.93;22.03;;;14.90;99.90;;;;;;5031606;28;20455;-49
2022/10/15 00:27:00;;;;;;;23.37;20.93;;;15.30;99.90;;;;;;5031836;28;20427;-49
2022/10/15 00:29:27;;;;;;;26.20;22.10;;;14.90;99.90;;;;;;5031351;28;20425;-49
2022/10/15 00:31:54;;;;;;;28.00;21.97;;;15.30;99.90;;;;;;5031644;28;20550;-49
2022/10/15 00:34:21;;;;;;;27.37;24.40;;;14.70;99.90;;;;;;5030382;28;20482;-49
2022/10/15 00:36:50;;;;;;;28.53;23.93;;;14.60;99.90;;;;;;5031740;28;20439;-49
2022/10/15 00:39:17;;;;;;;29.20;23.17;;;15.30;99.90;;;;;;5031428;28;20475;-49
2022/10/15 00:41:44;;;;;;;28.50;24.50;;;14.80;99.90;;;;;;5031524;28;20450;-49
2022/10/15 00:44:48;;;;;;;26.87;24.17;;;14.80;99.90;;;;;;5030256;28;20862;-47
2022/10/15 00:47:18;;;;;;;25.67;22.53;;;14.50;99.90;;;;;;4951173;29;20475;-47
2022/10/15 00:49:49;;;;;;;25.73;23.03;;;14.60;99.90;;;;;;4952601;28;20975;-48
2022/10/15 00:52:20;;;;;;;28.50;24.10;;;15.20;99.90;;;;;;4939014;29;20906;-48
2022/10/15 00:54:51;;;;;;;26.90;22.90;;;14.90;99.90;;;;;;4955054;28;20884;-48
2022/10/15 00:57:17;;;;;;;25.93;22.03;;;15.30;99.90;;;;;;4954970;29;20442;-48
2022/10/15 00:59:50;;;;;;;25.80;22.30;;;14.80;99.90;;;;;;4954534;29;21080;-48
2022/10/15 01:02:18;;;;;;;26.83;22.40;;;15.10;99.90;;;;;;4954868;29;21043;-49
2022/10/15 01:04:46;;;;;;;24.53;21.93;;;15.00;99.90;;;;;;4938592;29;20614;-49
2022/10/15 01:07:13;;;;;;;25.73;22.87;;;14.90;99.90;;;;;;4938587;29;20458;-49
2022/10/15 01:09:41;;;;;;;24.13;21.67;;;14.80;99.90;;;;;;4938453;29;20864;-49
2022/10/15 01:12:13;;;;;;;27.00;21.73;;;15.10;99.90;;;;;;4938604;29;20454;-49
2022/10/15 01:14:49;;;;;;;25.07;22.27;;;14.80;99.90;;;;;;4938592;29;20483;-50
2022/10/15 01:17:21;;;;;;;25.47;21.77;;;14.80;99.90;;;;;;4966097;28;20443;-49
2022/10/15 01:20:22;;;;;;;23.67;21.17;;;14.70;99.90;;;;;;5034660;28;20470;-49
2022/10/15 01:23:09;;;;;;;24.63;21.93;;;15.00;99.90;;;;;;5034961;28;20433;-48
2022/10/15 01:25:46;;;;;;;24.07;21.47;;;14.70;99.90;;;;;;5034969;28;20843;-49
2022/10/15 01:28:32;;;;;;;26.50;22.97;;;14.70;99.90;;;;;;5033536;28;20570;-49
2022/10/15 01:31:05;;;;;;;24.57;22.07;;;15.00;99.90;;;;;;5033774;28;20513;-49
2022/10/15 01:33:36;;;;;;;24.37;21.40;;;14.80;99.90;;;;;;5033400;28;20471;-49
2022/10/15 01:36:13;;;;;;;24.17;20.03;;;14.60;99.90;;;;;;5033358;28;20451;-49
2022/10/15 01:38:49;;;;;;;25.47;21.80;;;14.70;99.90;;;;;;5032953;28;20451;-49
2022/10/15 01:41:22;;;;;;;23.20;20.83;;;14.40;99.90;;;;;;5033075;28;20464;-49
2022/10/15 01:43:59;;;;;;;24.17;21.67;;;14.60;99.90;;;;;;5033114;28;20474;-49
2022/10/15 01:46:52;;;;;;;25.23;21.30;;;14.50;99.90;;;;;;5034108;28;20455;-49
2022/10/15 01:49:26;;;;;;;24.70;21.17;;;14.70;99.90;;;;;;5033873;28;20423;-49
2022/10/15 01:51:55;;;;;;;25.60;21.37;;;14.70;99.90;;;;;;5033380;28;20960;-49
2022/10/15 01:54:26;;;;;;;25.03;22.43;;;15.00;99.90;;;;;;5033020;28;20529;-48
2022/10/15 01:56:54;;;;;;;24.20;21.20;;;14.90;99.90;;;;;;5033339;28;20808;-49
2022/10/15 01:59:25;;;;;;;24.37;21.87;;;14.40;99.90;;;;;;5032516;28;20478;-49
2022/10/15 02:01:54;;;;;;;24.40;21.80;;;15.20;99.90;;;;;;5032159;28;20453;-49
2022/10/15 02:04:23;;;;;;;27.40;21.90;;;14.90;99.90;;;;;;5033972;28;20444;-49
2022/10/15 02:06:54;;;;;;;26.30;21.90;;;14.80;99.90;;;;;;5034158;28;20443;-49
2022/10/15 02:09:30;;;;;;;24.80;22.20;;;14.80;99.90;;;;;;5033669;28;20446;-49
2022/10/15 02:12:05;;;;;;;24.47;21.60;;;15.10;99.90;;;;;;5034065;28;20529;-48
2022/10/15 02:14:37;;;;;;;25.43;22.67;;;14.70;99.90;;;;;;5032877;28;20469;-49
2022/10/15 02:17:09;;;;;;;25.73;22.17;;;14.80;99.90;;;;;;5034096;28;20430;-49
2022/10/15 02:19:43;;;;;;;26.37;22.90;;;14.40;99.90;;;;;;5033504;28;20472;-49
2022/10/15 02:22:15;;;;;;;24.77;22.17;;;15.20;99.90;;;;;;5032542;28;20910;-49
2022/10/15 02:24:49;;;;;;;25.33;22.60;;;14.90;99.90;;;;;;5032744;28;20882;-49
2022/10/15 02:27:18;;;;;;;27.20;22.50;;;14.30;99.90;;;;;;5033952;28;20435;-49
2022/10/15 02:29:46;;;;;;;28.00;22.53;;;14.60;99.90;;;;;;5032099;28;20501;-48
2022/10/15 02:32:20;;;;;;;27.47;22.00;;;14.40;99.90;;;;;;5032682;28;20451;-49
2022/10/15 02:34:49;;;;;;;26.27;22.27;;;14.70;99.90;;;;;;5032631;28;20474;-49
2022/10/15 02:37:19;;;;;;;25.20;21.13;;;14.60;99.90;;;;;;5032553;28;20963;-48
2022/10/15 02:39:46;;;;;;;33.77;22.47;;;14.70;99.90;;;;;;5032104;28;20467;-48
2022/10/15 02:42:14;;;;;;;24.23;21.70;;;14.70;99.90;;;;;;5033673;28;20435;-48
2022/10/15 02:44:41;;;;;;;22.07;19.73;;;14.70;99.90;;;;;;5033503;28;20472;-49
2022/10/15 02:47:07;;;;;;;25.10;21.03;;;14.60;99.90;;;;;;5032574;28;20451;-49
2022/10/15 02:49:35;;;;;;;24.13;20.70;;;14.90;99.90;;;;;;5032607;28;20447;-49
2022/10/15 02:52:03;;;;;;;26.97;23.27;;;14.70;99.90;;;;;;5032240;28;20458;-48
2022/10/15 02:54:29;;;;;;;24.77;22.10;;;14.60;99.90;;;;;;5033342;28;20447;-49
2022/10/15 02:56:56;;;;;;;25.70;23.00;;;14.90;99.90;;;;;;5032086;28;20885;-49
2022/10/15 02:59:22;;;;;;;28.10;22.33;;;14.80;99.90;;;;;;5033061;28;20846;-49
2022/10/15 03:01:50;;;;;;;22.83;20.43;;;14.50;99.90;;;;;;5031966;28;20480;-49
2022/10/15 03:04:17;;;;;;;22.83;20.43;;;14.70;99.90;;;;;;5032486;28;20510;-49
2022/10/15 03:06:45;;;;;;;22.93;20.50;;;15.00;99.90;;;;;;5031971;28;20451;-49
2022/10/15 03:09:13;;;;;;;23.73;21.17;;;15.00;99.90;;;;;;5031533;28;20446;-48
2022/10/15 03:11:40;;;;;;;26.17;23.03;;;14.90;99.90;;;;;;5031518;28;20570;-49
2022/10/15 03:14:07;;;;;;;23.37;20.73;;;14.70;99.90;;;;;;5030937;28;20521;-49
2022/10/15 03:16:34;;;;;;;26.13;22.40;;;14.30;99.90;;;;;;5031720;28;20451;-49
2022/10/15 03:19:01;;;;;;;22.87;20.47;;;15.00;99.90;;;;;;5031206;28;20447;-48
2022/10/15 03:21:29;;;;;;;27.67;22.10;;;14.70;99.90;;;;;;5031586;28;20984;-48
2022/10/15 03:24:02;;;;;;;25.37;22.50;;;14.70;99.90;;;;;;5031443;28;20525;-49
2022/10/15 03:26:29;;;;;;;24.77;22.10;;;14.90;99.90;;;;;;5031592;28;20456;-49
2022/10/15 03:28:56;;;;;;;28.70;23.77;;;15.20;99.90;;;;;;5031710;28;20854;-48
2022/10/15 03:31:33;;;;;;;23.70;21.10;;;14.90;99.90;;;;;;5031363;28;20465;-48
2022/10/15 03:34:02;;;;;;;25.37;21.90;;;14.90;99.90;;;;;;5031125;28;20521;-49
2022/10/15 03:36:30;;;;;;;23.63;20.97;;;14.50;99.90;;;;;;5031323;28;20506;-49
2022/10/15 03:38:56;;;;;;;24.63;20.90;;;14.90;99.90;;;;;;5031074;28;20441;-49
2022/10/15 03:41:25;;;;;;;26.30;23.27;;;15.00;99.90;;;;;;5030957;28;20442;-50
2022/10/15 03:43:52;;;;;;;26.00;21.53;;;14.40;99.90;;;;;;5030786;28;20490;-48
2022/10/15 03:46:18;;;;;;;25.07;22.47;;;14.60;99.90;;;;;;5030874;28;20465;-49
2022/10/15 03:48:49;;;;;;;26.70;23.67;;;14.50;99.90;;;;;;5030659;28;20454;-49
2022/10/15 03:51:16;;;;;;;25.17;21.47;;;14.70;99.90;;;;;;5031052;28;20539;-49
2022/10/15 03:53:42;;;;;;;24.63;21.77;;;14.70;99.90;;;;;;5030928;28;20518;-49
2022/10/15 03:56:09;;;;;;;27.63;22.60;;;15.00;99.90;;;;;;5032116;28;20434;-49
2022/10/15 03:58:40;;;;;;;23.90;21.50;;;14.00;99.90;;;;;;5030613;28;20470;-49
2022/10/15 04:01:13;;;;;;;22.63;20.20;;;14.70;99.90;;;;;;5030765;28;20475;-49
2022/10/15 04:03:40;;;;;;;24.40;21.77;;;14.30;99.90;;;;;;5030932;28;20582;-49
2022/10/15 04:06:08;;;;;;;24.27;21.97;;;14.70;99.90;;;;;;5030705;28;20452;-48
2022/10/15 04:08:35;;;;;;;25.43;22.70;;;14.50;99.90;;;;;;5030439;28;20417;-49
2022/10/15 04:11:16;;;;;;;24.00;20.73;;;14.40;99.90;;;;;;5030747;28;20485;-49
2022/10/15 04:13:48;;;;;;;22.57;20.37;;;14.50;99.90;;;;;;5030802;28;20467;-49
2022/10/15 04:16:14;;;;;;;28.33;21.97;;;14.60;99.90;;;;;;5030680;28;20825;-49
2022/10/15 04:18:41;;;;;;;25.17;22.53;;;14.70;99.90;;;;;;5031539;28;20419;-49
2022/10/15 04:21:08;;;;;;;25.00;21.10;;;14.80;99.90;;;;;;5031633;28;20475;-49
2022/10/15 04:23:35;;;;;;;24.80;22.30;;;14.60;99.90;;;;;;5030483;28;20467;-49
2022/10/15 04:26:24;;;;;;;25.70;22.60;;;14.90;99.90;;;;;;5034648;28;20467;-49
2022/10/15 04:28:52;;;;;;;23.43;20.27;;;14.80;99.90;;;;;;5034535;28;20798;-49
2022/10/15 04:31:20;;;;;;;25.30;22.13;;;14.80;99.90;;;;;;5034514;28;20462;-49
2022/10/15 04:33:49;;;;;;;24.70;21.33;;;14.80;99.90;;;;;;5034726;28;20574;-49
2022/10/15 04:36:16;;;;;;;25.50;21.70;;;15.10;99.90;;;;;;5034535;28;21004;-49
2022/10/15 04:38:48;;;;;;;24.80;22.17;;;14.60;99.90;;;;;;5034043;28;20482;-49
2022/10/15 04:41:21;;;;;;;28.57;22.27;;;15.20;99.90;;;;;;5034599;28;20483;-48
2022/10/15 04:43:59;;;;;;;21.83;19.53;;;14.70;99.90;;;;;;5034761;28;20478;-49
2022/10/15 04:46:27;;;;;;;28.03;23.40;;;14.90;99.90;;;;;;5034526;28;20455;-48
2022/10/15 04:48:56;;;;;;;23.70;21.07;;;14.80;99.90;;;;;;5033945;28;20460;-48
2022/10/15 04:51:25;;;;;;;23.53;20.87;;;14.70;99.90;;;;;;5034343;28;20944;-49
2022/10/15 04:54:06;;;;;;;24.17;21.57;;;14.70;99.90;;;;;;5034363;28;21051;-48
2022/10/15 04:56:35;;;;;;;24.70;21.40;;;14.30;99.90;;;;;;5034057;28;20464;-49
2022/10/15 04:59:07;;;;;;;25.43;21.87;;;14.80;99.90;;;;;;5033872;28;20466;-49
2022/10/15 05:01:39;;;;;;;27.93;21.77;;;14.70;99.90;;;;;;5034082;28;20479;-49
2022/10/15 05:04:10;;;;;;;28.20;21.10;;;14.60;99.90;;;;;;5033999;28;20489;-48
2022/10/15 05:06:39;;;;;;;27.00;22.47;;;14.90;99.90;;;;;;5034122;28;20458;-49
2022/10/15 05:09:16;;;;;;;22.63;20.27;;;14.50;99.90;;;;;;5033506;28;20469;-49
2022/10/15 05:11:48;;;;;;;24.33;21.60;;;14.60;99.90;;;;;;5033942;28;20456;-49
2022/10/15 05:14:16;;;;;;;26.03;23.30;;;15.10;99.90;;;;;;5033775;28;20528;-49
2022/10/15 05:16:49;;;;;;;22.93;20.47;;;14.90;99.90;;;;;;5033813;28;20454;-48
2022/10/15 05:19:16;;;;;;;23.37;21.03;;;14.90;99.90;;;;;;5033313;28;20447;-48
2022/10/15 05:21:45;;;;;;;23.77;21.23;;;14.40;99.90;;;;;;5034906;28;20467;-49
2022/10/15 05:24:21;;;;;;;23.33;20.87;;;14.80;99.90;;;;;;5033729;28;20829;-49
2022/10/15 05:27:11;;;;;;;22.67;20.37;;;14.40;99.90;;;;;;5033841;28;20455;-49
2022/10/15 05:29:40;;;;;;;23.90;20.57;;;14.80;99.90;;;;;;5033368;28;20456;-49
2022/10/15 05:32:07;;;;;;;23.53;21.10;;;14.80;99.90;;;;;;5033240;28;20462;-49
2022/10/15 05:34:34;;;;;;;24.20;21.10;;;15.20;99.90;;;;;;5033531;28;21099;-49
2022/10/15 05:37:12;;;;;;;22.60;20.20;;;15.00;99.90;;;;;;5032262;28;20457;-48
2022/10/15 05:39:40;;;;;;;21.13;18.93;;;15.00;99.90;;;;;;5032963;28;20473;-49
2022/10/15 05:42:08;;;;;;;24.50;21.90;;;14.20;99.90;;;;;;5034509;28;20520;-49
2022/10/15 05:44:40;;;;;;;23.20;20.80;;;14.30;99.90;;;;;;5032804;28;20475;-49
2022/10/15 05:47:10;;;;;;;22.90;19.73;;;15.10;99.90;;;;;;5034385;28;20443;-49
2022/10/15 05:49:37;;;;;;;23.00;20.50;;;15.30;99.90;;;;;;5033013;28;20494;-48
2022/10/15 05:52:10;;;;;;;26.70;19.47;;;15.30;99.90;;;;;;5033155;28;20785;-48
2022/10/15 05:54:57;;;;;;;20.93;18.73;;;14.80;99.90;;;;;;5033017;28;20532;-48
2022/10/15 05:57:23;;;;;;;20.73;18.53;;;14.70;99.90;;;;;;5034279;28;20419;-48
2022/10/15 05:59:51;;;;;;;19.93;17.97;;;14.20;99.90;;;;;;5033889;28;20458;-49
2022/10/15 06:02:18;;;;;;;22.40;20.00;;;14.80;99.90;;;;;;5034251;28;20471;-48
2022/10/15 06:04:44;;;;;;;21.57;19.27;;;14.30;99.90;;;;;;5034018;28;20451;-48
2022/10/15 06:07:11;;;;;;;21.87;18.67;;;14.90;99.90;;;;;;5034185;28;20432;-47
2022/10/15 06:09:37;;;;;;;20.30;18.20;;;14.50;99.90;;;;;;5033684;28;20431;-48
2022/10/15 06:12:04;;;;;;;21.30;19.10;;;14.30;99.90;;;;;;5034105;28;20439;-48
2022/10/15 06:14:31;;;;;;;19.97;18.00;;;14.80;99.90;;;;;;5033887;28;20454;-49
2022/10/15 06:16:58;;;;;;;21.67;19.37;;;14.70;99.90;;;;;;5034547;28;20460;-48
2022/10/15 06:19:25;;;;;;;23.13;18.40;;;14.90;99.90;;;;;;5033534;28;20949;-48
2022/10/15 06:21:52;;;;;;;22.23;18.47;;;14.60;99.90;;;;;;5033756;28;20479;-48
2022/10/15 06:24:18;;;;;;;21.13;18.77;;;14.50;99.90;;;;;;5033697;28;20464;-48
2022/10/15 06:26:45;;;;;;;20.50;18.30;;;14.90;99.90;;;;;;5033571;28;20440;-48
2022/10/15 06:29:12;;;;;;;17.83;16.03;;;15.20;99.90;;;;;;5033363;28;20436;-48
2022/10/15 06:31:38;;;;;;;19.50;17.33;;;14.90;99.90;;;;;;5033626;28;20435;-48
2022/10/15 06:34:07;;;;;;;20.73;16.43;;;14.80;99.90;;;;;;5033404;28;20459;-48
2022/10/15 06:36:33;;;;;;;18.10;16.20;;;14.90;99.90;;;;;;5033453;28;20439;-49
2022/10/15 06:39:00;;;;;;;20.43;17.03;;;14.50;99.90;;;;;;5033108;28;20440;-48
2022/10/15 06:41:26;;;;;;;19.60;17.60;;;14.90;99.90;;;;;;5033506;28;20479;-48
2022/10/15 06:43:53;;;;;;;19.83;17.40;;;15.00;99.90;;;;;;5033319;28;20458;-49
2022/10/15 06:46:20;;;;;;;22.10;18.10;;;14.80;99.90;;;;;;5034119;28;20443;-48
2022/10/15 06:48:46;;;;;;;20.83;18.30;;;14.90;99.90;;;;;;5032943;28;20440;-49
2022/10/15 06:51:14;;;;;;;18.43;16.53;;;14.80;99.90;;;;;;5033269;28;20440;-48
2022/10/15 06:53:47;;;;;;;18.10;16.37;;;14.90;99.90;;;;;;5033233;28;20454;-48
2022/10/15 06:56:13;;;;;;;18.33;16.53;;;15.30;99.90;;;;;;5032986;28;20442;-48
2022/10/15 06:58:42;;;;;;;19.57;16.27;;;14.60;99.90;;;;;;5031225;28;20427;-48
2022/10/15 07:01:09;;;;;;;18.23;16.43;;;15.40;99.90;;;;;;5032970;28;20521;-48
2022/10/15 07:03:37;;;;;;;18.97;16.97;;;14.70;99.90;;;;;;5033326;28;20547;-48
2022/10/15 07:06:07;;;;;;;17.50;15.70;;;15.30;99.90;;;;;;5032530;28;20439;-48
2022/10/15 07:08:36;;;;;;;18.43;15.73;;;15.70;99.90;;;;;;5031003;28;20473;-48
2022/10/15 07:11:03;;;;;;;18.53;16.53;;;14.90;99.90;;;;;;5032569;28;20443;-48
2022/10/15 07:13:31;;;;;;;18.30;16.27;;;15.70;99.90;;;;;;5032487;28;20546;-48
2022/10/15 07:16:04;;;;;;;17.00;15.40;;;15.40;99.90;;;;;;5031067;28;20944;-49
2022/10/15 07:18:32;;;;;;;15.00;13.60;;;15.70;99.90;;;;;;5032221;28;20456;-48
2022/10/15 07:20:59;;;;;;;17.87;16.03;;;15.70;99.90;;;;;;5032496;28;20476;-47
2022/10/15 07:23:25;;;;;;;18.37;16.60;;;15.80;99.90;;;;;;5032379;28;20480;-48
2022/10/15 07:25:53;;;;;;;18.90;15.97;;;16.10;99.90;;;;;;5032575;28;20977;-48
2022/10/15 07:28:20;;;;;;;16.20;14.53;;;15.70;99.90;;;;;;5032510;28;20638;-48
2022/10/15 07:30:46;;;;;;;17.00;15.30;;;15.80;99.90;;;;;;5032049;28;20995;-48
2022/10/15 07:33:13;;;;;;;16.50;14.90;;;16.00;99.90;;;;;;5032128;28;20400;-48
2022/10/15 07:35:44;;;;;;;15.43;13.97;;;16.00;99.90;;;;;;5031941;28;20932;-48
2022/10/15 07:38:11;;;;;;;16.00;14.47;;;15.80;99.90;;;;;;5031936;28;20534;-49
2022/10/15 07:40:37;;;;;;;17.20;15.40;;;15.80;99.90;;;;;;5031461;28;20730;-48
2022/10/15 07:43:05;;;;;;;17.47;14.77;;;16.10;99.90;;;;;;5029994;28;20560;-48
2022/10/15 07:45:32;;;;;;;16.17;14.57;;;16.30;99.90;;;;;;5031849;28;20940;-49
2022/10/15 07:47:59;;;;;;;17.13;14.60;;;16.30;99.90;;;;;;5031700;28;20816;-49
2022/10/15 07:50:25;;;;;;;15.80;14.30;;;16.40;99.90;;;;;;5031573;28;20440;-48
2022/10/15 07:52:56;;;;;;;16.30;14.70;;;16.30;99.90;;;;;;5030563;28;21019;-48
2022/10/15 07:55:22;;;;;;;16.40;14.70;;;16.30;99.90;;;;;;5031807;28;20511;-48
2022/10/15 07:57:49;;;;;;;17.43;15.50;;;16.60;99.90;;;;;;5031741;28;20499;-49
2022/10/15 08:00:17;;;;;;;16.90;15.30;;;16.60;99.90;;;;;;5030786;28;20441;-48
2022/10/15 08:02:44;;;;;;;13.67;12.23;;;16.90;99.90;;;;;;5031548;28;20484;-47
2022/10/15 08:05:10;;;;;;;17.47;15.30;;;16.80;99.90;;;;;;5031645;28;20885;-49
2022/10/15 08:07:37;;;;;;;16.17;14.67;;;17.20;99.90;;;;;;5031567;28;20527;-49
2022/10/15 08:10:12;;;;;;;17.47;15.77;;;16.90;99.90;;;;;;5031346;28;20437;-49
2022/10/15 08:12:39;;;;;;;15.23;13.77;;;16.60;99.90;;;;;;5031861;28;20580;-49
2022/10/15 08:15:06;;;;;;;14.70;13.30;;;16.70;99.90;;;;;;5031574;28;20460;-49
2022/10/15 08:17:34;;;;;;;15.67;14.10;;;16.60;99.90;;;;;;5031817;28;20433;-49
2022/10/15 08:20:01;;;;;;;14.10;12.70;;;17.00;99.90;;;;;;5031209;28;20433;-49
2022/10/15 08:22:27;;;;;;;15.50;14.00;;;16.40;99.90;;;;;;5031369;28;20848;-49
2022/10/15 08:24:55;;;;;;;13.03;11.80;;;17.00;99.90;;;;;;5031423;28;20449;-49
2022/10/15 08:27:22;;;;;;;15.23;12.77;;;17.00;99.90;;;;;;5030967;28;20499;-49
2022/10/15 08:29:50;;;;;;;12.40;11.07;;;17.20;99.90;;;;;;5031157;28;20947;-49
2022/10/15 08:32:17;;;;;;;14.80;12.90;;;17.30;99.90;;;;;;5031484;28;20543;-49
2022/10/15 08:34:46;;;;;;;13.80;12.50;;;17.50;99.90;;;;;;5030963;28;20460;-49
2022/10/15 08:37:12;;;;;;;16.20;11.20;;;17.50;99.90;;;;;;5031054;28;20457;-50
2022/10/15 08:39:39;;;;;;;13.00;11.80;;;17.50;99.90;;;;;;5031069;28;20923;-50
2022/10/15 08:42:14;;;;;;;13.83;10.90;;;17.30;99.90;;;;;;5031663;28;20481;-48
2022/10/15 08:44:46;;;;;;;12.60;9.80;;;17.50;99.90;;;;;;5031400;28;20729;-48
2022/10/15 08:47:25;;;;;;;12.70;11.40;;;17.60;99.90;;;;;;5031130;28;20931;-48
2022/10/15 08:49:55;;;;;;;12.97;11.77;;;17.60;99.90;;;;;;5030928;28;20873;-49
2022/10/15 08:52:26;;;;;;;13.73;12.27;;;17.40;99.90;;;;;;5031407;28;20522;-49
2022/10/15 08:54:54;;;;;;;12.23;11.00;;;17.70;99.90;;;;;;5031257;28;20454;-49
2022/10/15 08:57:35;;;;;;;11.43;10.33;;;17.70;99.90;;;;;;5031352;28;20442;-49
2022/10/15 09:00:10;;;;;;;14.67;12.40;;;17.70;99.90;;;;;;5030508;28;20404;-48
2022/10/15 09:02:45;;;;;;;17.37;12.27;;;17.80;99.90;;;;;;5031194;28;20489;-49
2022/10/15 09:05:26;;;;;;;16.77;14.40;;;17.80;99.90;;;;;;5031669;28;20474;-49
2022/10/15 09:07:58;;;;;;;16.97;15.23;;;17.70;99.90;;;;;;5031212;28;20438;-48
2022/10/15 09:10:35;;;;;;;14.53;13.20;;;17.60;99.90;;;;;;5032168;28;20931;-48
2022/10/15 09:13:10;;;;;;;15.63;14.00;;;17.70;99.90;;;;;;5034872;28;20541;-48
2022/10/15 09:15:44;;;;;;;15.07;13.57;;;17.30;99.90;;;;;;5034916;28;20440;-47
2022/10/15 09:18:16;;;;;;;14.80;13.30;;;17.50;99.90;;;;;;5034825;28;20435;-48
2022/10/15 09:20:45;;;;;;;14.50;12.97;;;17.60;99.90;;;;;;5033425;28;20437;-48
2022/10/15 09:23:17;;;;;;;14.03;12.53;;;17.20;99.90;;;;;;5034595;28;20568;-48
2022/10/15 09:25:49;;;;;;;15.00;12.73;;;17.80;99.90;;;;;;5034701;28;20431;-48
2022/10/15 09:28:23;;;;;;;14.30;12.90;;;17.80;99.90;;;;;;5034259;28;20525;-49
2022/10/15 09:30:54;;;;;;;13.70;12.40;;;18.10;99.90;;;;;;5034538;28;20430;-49
2022/10/15 09:33:33;;;;;;;13.30;12.00;;;18.00;99.90;;;;;;5034517;28;20482;-48
2022/10/15 09:36:09;;;;;;;11.93;10.73;;;18.10;99.90;;;;;;5034208;28;20482;-49
2022/10/15 09:38:47;;;;;;;14.57;11.23;;;18.00;99.90;;;;;;5034176;28;20438;-48
2022/10/15 09:41:23;;;;;;;13.30;11.50;;;18.20;99.90;;;;;;5033193;28;20453;-48
2022/10/15 09:43:52;;;;;;;11.90;10.80;;;18.30;99.90;;;;;;5033758;28;20481;-48
2022/10/15 09:46:19;;;;;;;12.77;11.47;;;18.30;99.90;;;;;;5034115;28;20427;-49
2022/10/15 09:48:51;;;;;;;11.87;10.17;;;18.10;99.90;;;;;;5033880;28;20442;-50
2022/10/15 09:51:26;;;;;;;11.20;9.70;;;18.50;99.90;;;;;;5034226;28;20932;-49
2022/10/15 09:54:01;;;;;;;10.83;9.80;;;18.50;99.90;;;;;;5034115;28;20454;-49
2022/10/15 09:56:33;;;;;;;12.37;11.17;;;18.60;99.90;;;;;;5034731;28;20445;-49
2022/10/15 09:59:00;;;;;;;12.10;11.00;;;18.70;99.90;;;;;;5033762;28;20966;-49
2022/10/15 10:01:28;;;;;;;11.60;10.60;;;18.80;99.90;;;;;;5034304;28;20787;-49
2022/10/15 10:04:10;;;;;;;10.77;9.77;;;18.90;99.90;;;;;;5033823;28;20498;-50
2022/10/15 10:06:45;;;;;;;10.80;9.70;;;19.00;99.90;;;;;;5033555;28;20462;-48
2022/10/15 10:09:18;;;;;;;10.83;9.83;;;19.10;99.90;;;;;;5033656;28;20443;-49
2022/10/15 10:11:49;;;;;;;12.20;10.13;;;18.90;99.90;;;;;;5034157;28;20431;-48
2022/10/15 10:14:25;;;;;;;12.27;11.13;;;18.80;99.90;;;;;;5033664;28;20466;-49
2022/10/15 10:17:12;;;;;;;12.10;10.90;;;18.90;99.90;;;;;;5033547;28;20650;-51
2022/10/15 10:19:39;;;;;;;11.77;10.57;;;19.10;99.90;;;;;;5033340;28;20439;-48
2022/10/15 10:22:14;;;;;;;11.67;10.10;;;19.30;99.90;;;;;;5033089;28;20443;-48
2022/10/15 10:24:41;;;;;;;11.27;10.17;;;19.10;99.90;;;;;;5033705;28;20869;-49
2022/10/15 10:27:19;;;;;;;14.83;13.27;;;19.20;99.90;;;;;;5033320;28;20443;-49
2022/10/15 10:29:51;;;;;;;14.30;13.00;;;19.00;99.90;;;;;;5033087;28;20829;-48
2022/10/15 10:32:20;;;;;;;12.43;11.10;;;19.00;99.90;;;;;;5033156;28;20438;-48
2022/10/15 10:34:47;;;;;;;14.13;11.20;;;19.00;99.90;;;;;;5033747;28;20460;-49
2022/10/15 10:37:15;;;;;;;11.97;10.70;;;19.00;99.90;;;;;;5033124;28;20501;-49
2022/10/15 10:39:43;;;;;;;12.63;11.43;;;19.10;99.90;;;;;;5033083;28;20443;-49
2022/10/15 10:42:26;;;;;;;11.40;10.30;;;19.50;99.90;;;;;;5031752;28;20513;-49
2022/10/15 10:44:53;;;;;;;10.07;9.17;;;19.50;99.90;;;;;;5033632;28;20468;-50
2022/10/15 10:47:22;;;;;;;11.80;10.60;;;19.30;99.90;;;;;;5033657;28;20440;-50
2022/10/15 10:49:55;;;;;;;10.40;9.30;;;19.40;99.90;;;;;;5033642;28;20795;-51
2022/10/15 10:52:26;;;;;;;11.50;10.40;;;19.40;99.90;;;;;;5032780;28;20440;-51
2022/10/15 10:54:58;;;;;;;10.63;9.63;;;19.70;99.90;;;;;;5032805;28;20545;-49
2022/10/15 10:57:34;;;;;;;10.67;9.67;;;19.80;99.90;;;;;;5032936;28;20428;-49
2022/10/15 11:00:04;;;;;;;14.57;10.13;;;19.50;99.90;;;;;;5033290;28;20540;-49
2022/10/15 11:02:32;;;;;;;9.10;8.30;;;19.70;99.90;;;;;;5033069;28;20842;-48
2022/10/15 11:04:59;;;;;;;10.60;9.70;;;19.70;99.90;;;;;;5032828;28;20899;-49
2022/10/15 11:07:34;;;;;;;8.90;8.00;;;19.70;99.90;;;;;;5032948;28;20509;-50
2022/10/15 11:10:08;;;;;;;10.60;8.13;;;19.50;99.90;;;;;;5032521;28;20464;-50
2022/10/15 11:13:06;;;;;;;8.50;7.60;;;19.90;99.90;;;;;;5032449;28;20933;-50
2022/10/15 11:15:42;;;;;;;8.90;8.03;;;19.90;99.90;;;;;;5031941;28;20440;-50
2022/10/15 11:18:32;;;;;;;10.93;8.50;;;20.10;99.90;;;;;;5032143;28;20468;-50
2022/10/15 11:21:07;;;;;;;10.43;8.67;;;19.90;99.90;;;;;;5032390;28;20429;-50
2022/10/15 11:24:05;;;;;;;9.63;8.63;;;19.80;99.90;;;;;;5032104;28;20490;-50
2022/10/15 11:26:50;;;;;;;8.73;7.80;;;20.10;99.90;;;;;;5032006;28;20976;-49
2022/10/15 11:29:28;;;;;;;8.47;7.67;;;19.80;99.90;;;;;;5031827;28;20434;-50
2022/10/15 11:32:07;;;;;;;9.20;8.43;;;19.60;99.90;;;;;;5031995;28;20436;-49
2022/10/15 11:34:47;;;;;;;8.53;7.40;;;19.80;99.90;;;;;;5031358;28;20456;-49
2022/10/15 11:37:31;;;;;;;7.13;6.47;;;19.60;99.90;;;;;;5031909;28;20517;-49
2022/10/15 11:40:14;;;;;;;7.67;6.87;;;20.10;99.90;;;;;;5032008;28;20456;-49
2022/10/15 11:42:48;;;;;;;7.57;6.60;;;19.90;99.90;;;;;;5031199;28;20481;-50
2022/10/15 11:45:33;;;;;;;6.40;5.80;;;19.80;99.90;;;;;;5032222;28;20551;-50
2022/10/15 11:48:04;;;;;;;8.17;6.40;;;19.70;99.90;;;;;;5032100;28;20438;-50
2022/10/15 11:50:35;;;;;;;7.10;6.50;;;19.80;99.90;;;;;;5031574;28;20444;-49
2022/10/15 11:53:40;;;;;;;6.40;5.80;;;19.70;99.90;;;;;;5031487;28;20507;-50
2022/10/15 11:56:14;;;;;;;10.43;6.00;;;20.10;99.90;;;;;;5025117;28;20462;-50
2022/10/15 11:58:44;;;;;;;6.27;5.67;;;20.10;99.90;;;;;;5031568;28;20445;-50
2022/10/15 12:01:17;;;;;;;6.17;5.67;;;20.40;99.90;;;;;;5031850;28;20461;-49
2022/10/15 12:03:50;;;;;;;6.87;6.17;;;20.30;99.90;;;;;;5031338;28;20480;-49
2022/10/15 12:06:20;;;;;;;6.40;5.80;;;20.30;99.90;;;;;;5031776;28;20422;-50
2022/10/15 12:08:49;;;;;;;8.30;6.30;;;20.40;99.90;;;;;;5031559;28;20448;-50
2022/10/15 12:11:26;;;;;;;6.37;5.77;;;20.60;99.90;;;;;;5031591;28;20434;-50
2022/10/15 12:13:59;;;;;;;6.17;5.67;;;20.40;99.90;;;;;;5031241;28;20457;-50
2022/10/15 12:16:31;;;;;;;6.13;5.63;;;20.40;99.90;;;;;;5031283;28;20849;-50
2022/10/15 12:19:10;;;;;;;5.83;5.23;;;20.40;99.90;;;;;;5031129;28;20445;-49
2022/10/15 12:21:39;;;;;;;8.97;5.63;;;20.00;99.90;;;;;;5031500;28;20536;-50
2022/10/15 12:24:46;;;;;;;6.83;6.13;;;20.20;99.90;;;;;;5031478;28;20490;-49
2022/10/15 12:27:27;;;;;;;6.20;5.60;;;20.20;99.90;;;;;;5030782;28;20442;-51
2022/10/15 12:30:26;;;;;;;7.83;5.87;;;20.00;99.90;;;;;;5031169;28;20470;-49
2022/10/15 12:32:53;;;;;;;5.67;4.90;;;20.40;99.90;;;;;;5031824;28;20456;-49
2022/10/15 12:35:30;;;;;;;6.37;5.77;;;20.20;99.90;;;;;;5031089;28;20458;-50
2022/10/15 12:38:24;;;;;;;6.53;5.93;;;19.90;99.90;;;;;;5031400;28;20442;-50
2022/10/15 12:41:05;;;;;;;5.70;5.20;;;20.00;99.90;;;;;;5031514;28;20440;-50
2022/10/15 12:43:36;;;;;;;7.77;5.40;;;20.10;99.90;;;;;;5030807;28;20480;-50
2022/10/15 12:46:04;;;;;;;6.80;5.40;;;20.20;99.90;;;;;;5033697;28;20475;-50
2022/10/15 12:48:34;;;;;;;7.87;5.50;;;20.20;99.90;;;;;;5035208;28;20441;-50
2022/10/15 12:51:38;;;;;;;8.50;5.37;;;20.10;99.90;;;;;;5035012;28;20465;-50